sensor_id;sensor_type;location;lat;lon;timestamp;P1;durP1;ratioP1;P2;durP2;ratioP2
73859;SDS011;62197;51.632;13.700;2022-08-21T00:01:57;37.25;;;21.13;;
73859;SDS011;62197;51.632;13.700;2022-08-21T00:04:22;39.63;;;22.08;;
73859;SDS011;62197;51.632;13.700;2022-08-21T00:06:48;38.85;;;21.33;;
73859;SDS011;62197;51.632;13.700;2022-08-21T00:09:15;37.25;;;21.45;;
73859;SDS011;62197;51.632;13.700;2022-08-21T00:11:40;38.60;;;21.48;;
73859;SDS011;62197;51.632;13.700;2022-08-21T00:14:07;33.97;;;20.70;;
73859;SDS011;62197;51.632;13.700;2022-08-21T00:16:34;35.63;;;20.90;;
73859;SDS011;62197;51.632;13.700;2022-08-21T00:18:59;34.33;;;19.90;;
73859;SDS011;62197;51.632;13.700;2022-08-21T00:21:24;35.00;;;19.88;;
73859;SDS011;62197;51.632;13.700;2022-08-21T00:23:51;31.42;;;18.25;;
73859;SDS011;62197;51.632;13.700;2022-08-21T00:26:16;31.92;;;18.67;;
73859;SDS011;62197;51.632;13.700;2022-08-21T00:28:42;27.88;;;17.17;;
73859;SDS011;62197;51.632;13.700;2022-08-21T00:31:07;32.97;;;19.52;;
73859;SDS011;62197;51.632;13.700;2022-08-21T00:33:33;29.85;;;19.13;;
73859;SDS011;62197;51.632;13.700;2022-08-21T00:35:58;32.00;;;18.52;;
73859;SDS011;62197;51.632;13.700;2022-08-21T00:38:24;29.67;;;18.08;;
73859;SDS011;62197;51.632;13.700;2022-08-21T00:40:51;31.75;;;18.63;;
73859;SDS011;62197;51.632;13.700;2022-08-21T00:43:23;31.40;;;18.02;;
73859;SDS011;62197;51.632;13.700;2022-08-21T00:45:53;30.38;;;18.55;;
73859;SDS011;62197;51.632;13.700;2022-08-21T00:48:22;30.25;;;17.70;;
73859;SDS011;62197;51.632;13.700;2022-08-21T00:51:10;28.20;;;17.30;;
73859;SDS011;62197;51.632;13.700;2022-08-21T00:53:39;31.73;;;18.13;;
73859;SDS011;62197;51.632;13.700;2022-08-21T00:56:07;30.10;;;18.38;;
73859;SDS011;62197;51.632;13.700;2022-08-21T00:58:35;34.72;;;18.92;;
73859;SDS011;62197;51.632;13.700;2022-08-21T01:01:03;32.03;;;18.55;;
73859;SDS011;62197;51.632;13.700;2022-08-21T01:03:30;31.90;;;19.42;;
73859;SDS011;62197;51.632;13.700;2022-08-21T01:05:55;36.47;;;19.80;;
73859;SDS011;62197;51.632;13.700;2022-08-21T01:08:21;32.05;;;18.30;;
73859;SDS011;62197;51.632;13.700;2022-08-21T01:10:47;34.55;;;19.17;;
73859;SDS011;62197;51.632;13.700;2022-08-21T01:13:14;34.08;;;20.20;;
73859;SDS011;62197;51.632;13.700;2022-08-21T01:15:43;34.70;;;18.50;;
73859;SDS011;62197;51.632;13.700;2022-08-21T01:18:11;35.22;;;19.25;;
73859;SDS011;62197;51.632;13.700;2022-08-21T01:20:37;30.02;;;17.98;;
73859;SDS011;62197;51.632;13.700;2022-08-21T01:23:07;31.08;;;18.95;;
73859;SDS011;62197;51.632;13.700;2022-08-21T01:25:32;26.70;;;17.10;;
73859;SDS011;62197;51.632;13.700;2022-08-21T01:28:00;29.15;;;19.70;;
73859;SDS011;62197;51.632;13.700;2022-08-21T01:30:29;29.48;;;18.80;;
73859;SDS011;62197;51.632;13.700;2022-08-21T01:32:59;35.17;;;19.33;;
73859;SDS011;62197;51.632;13.700;2022-08-21T01:35:25;31.83;;;18.95;;
73859;SDS011;62197;51.632;13.700;2022-08-21T01:37:50;30.67;;;19.45;;
73859;SDS011;62197;51.632;13.700;2022-08-21T01:40:16;35.80;;;19.63;;
73859;SDS011;62197;51.632;13.700;2022-08-21T01:42:43;32.60;;;18.42;;
73859;SDS011;62197;51.632;13.700;2022-08-21T01:45:10;32.35;;;19.20;;
73859;SDS011;62197;51.632;13.700;2022-08-21T01:47:37;32.65;;;19.45;;
73859;SDS011;62197;51.632;13.700;2022-08-21T01:50:04;34.17;;;19.83;;
73859;SDS011;62197;51.632;13.700;2022-08-21T01:52:32;35.65;;;20.40;;
73859;SDS011;62197;51.632;13.700;2022-08-21T01:54:57;34.65;;;20.30;;
73859;SDS011;62197;51.632;13.700;2022-08-21T01:57:23;36.05;;;20.60;;
73859;SDS011;62197;51.632;13.700;2022-08-21T01:59:49;36.42;;;19.73;;
73859;SDS011;62197;51.632;13.700;2022-08-21T02:02:14;34.97;;;19.10;;
73859;SDS011;62197;51.632;13.700;2022-08-21T02:04:39;36.30;;;20.83;;
73859;SDS011;62197;51.632;13.700;2022-08-21T02:07:05;32.78;;;19.35;;
73859;SDS011;62197;51.632;13.700;2022-08-21T02:09:30;34.78;;;22.13;;
73859;SDS011;62197;51.632;13.700;2022-08-21T02:11:55;34.63;;;19.38;;
73859;SDS011;62197;51.632;13.700;2022-08-21T02:14:21;33.22;;;19.00;;
73859;SDS011;62197;51.632;13.700;2022-08-21T02:16:46;31.75;;;18.73;;
73859;SDS011;62197;51.632;13.700;2022-08-21T02:19:13;28.15;;;18.73;;
73859;SDS011;62197;51.632;13.700;2022-08-21T02:21:39;31.85;;;19.10;;
73859;SDS011;62197;51.632;13.700;2022-08-21T02:24:06;30.38;;;18.65;;
73859;SDS011;62197;51.632;13.700;2022-08-21T02:26:32;29.92;;;18.50;;
73859;SDS011;62197;51.632;13.700;2022-08-21T02:28:57;33.65;;;19.27;;
73859;SDS011;62197;51.632;13.700;2022-08-21T02:31:23;29.75;;;17.33;;
73859;SDS011;62197;51.632;13.700;2022-08-21T02:33:49;33.88;;;18.77;;
73859;SDS011;62197;51.632;13.700;2022-08-21T02:36:15;31.02;;;17.83;;
73859;SDS011;62197;51.632;13.700;2022-08-21T02:38:40;35.72;;;19.30;;
73859;SDS011;62197;51.632;13.700;2022-08-21T02:41:10;33.33;;;18.70;;
73859;SDS011;62197;51.632;13.700;2022-08-21T02:43:37;31.27;;;17.98;;
73859;SDS011;62197;51.632;13.700;2022-08-21T02:46:04;30.30;;;17.13;;
73859;SDS011;62197;51.632;13.700;2022-08-21T02:48:31;33.53;;;17.92;;
73859;SDS011;62197;51.632;13.700;2022-08-21T02:51:02;29.73;;;17.27;;
73859;SDS011;62197;51.632;13.700;2022-08-21T02:55:56;24.92;;;17.15;;
73859;SDS011;62197;51.632;13.700;2022-08-21T02:58:25;26.65;;;16.58;;
73859;SDS011;62197;51.632;13.700;2022-08-21T03:00:53;29.23;;;17.55;;
73859;SDS011;62197;51.632;13.700;2022-08-21T03:03:19;30.02;;;17.83;;
73859;SDS011;62197;51.632;13.700;2022-08-21T03:05:46;30.70;;;16.85;;
73859;SDS011;62197;51.632;13.700;2022-08-21T03:08:12;29.77;;;17.13;;
73859;SDS011;62197;51.632;13.700;2022-08-21T03:10:40;28.45;;;16.35;;
73859;SDS011;62197;51.632;13.700;2022-08-21T03:13:07;27.42;;;17.38;;
73859;SDS011;62197;51.632;13.700;2022-08-21T03:15:33;28.20;;;15.65;;
73859;SDS011;62197;51.632;13.700;2022-08-21T03:17:59;25.80;;;15.93;;
73859;SDS011;62197;51.632;13.700;2022-08-21T03:20:25;25.75;;;15.52;;
73859;SDS011;62197;51.632;13.700;2022-08-21T03:22:53;22.50;;;14.13;;
73859;SDS011;62197;51.632;13.700;2022-08-21T03:25:20;23.42;;;14.93;;
73859;SDS011;62197;51.632;13.700;2022-08-21T03:27:47;23.98;;;15.45;;
73859;SDS011;62197;51.632;13.700;2022-08-21T03:30:14;22.33;;;14.13;;
73859;SDS011;62197;51.632;13.700;2022-08-21T03:32:41;22.80;;;14.57;;
73859;SDS011;62197;51.632;13.700;2022-08-21T03:35:06;20.42;;;14.25;;
73859;SDS011;62197;51.632;13.700;2022-08-21T03:37:32;19.83;;;13.75;;
73859;SDS011;62197;51.632;13.700;2022-08-21T03:39:58;20.50;;;13.32;;
73859;SDS011;62197;51.632;13.700;2022-08-21T03:42:23;21.98;;;14.70;;
73859;SDS011;62197;51.632;13.700;2022-08-21T03:44:49;25.10;;;14.52;;
73859;SDS011;62197;51.632;13.700;2022-08-21T03:47:14;21.02;;;14.52;;
73859;SDS011;62197;51.632;13.700;2022-08-21T03:49:39;22.08;;;13.70;;
73859;SDS011;62197;51.632;13.700;2022-08-21T03:52:05;17.40;;;12.57;;
73859;SDS011;62197;51.632;13.700;2022-08-21T03:54:31;20.50;;;13.50;;
73859;SDS011;62197;51.632;13.700;2022-08-21T03:56:56;21.73;;;15.40;;
73859;SDS011;62197;51.632;13.700;2022-08-21T03:59:22;19.70;;;12.75;;
73859;SDS011;62197;51.632;13.700;2022-08-21T04:01:54;20.77;;;14.30;;
73859;SDS011;62197;51.632;13.700;2022-08-21T04:04:21;20.55;;;14.02;;
73859;SDS011;62197;51.632;13.700;2022-08-21T04:06:46;19.55;;;13.07;;
73859;SDS011;62197;51.632;13.700;2022-08-21T04:09:12;23.67;;;15.23;;
73859;SDS011;62197;51.632;13.700;2022-08-21T04:11:37;23.95;;;14.95;;
73859;SDS011;62197;51.632;13.700;2022-08-21T04:14:02;23.55;;;14.43;;
73859;SDS011;62197;51.632;13.700;2022-08-21T04:16:28;22.55;;;14.23;;
73859;SDS011;62197;51.632;13.700;2022-08-21T04:18:53;25.23;;;15.70;;
73859;SDS011;62197;51.632;13.700;2022-08-21T04:21:18;25.75;;;15.90;;
73859;SDS011;62197;51.632;13.700;2022-08-21T04:23:44;26.83;;;16.48;;
73859;SDS011;62197;51.632;13.700;2022-08-21T04:26:09;29.02;;;16.48;;
73859;SDS011;62197;51.632;13.700;2022-08-21T04:28:35;28.65;;;17.10;;
73859;SDS011;62197;51.632;13.700;2022-08-21T04:31:00;27.20;;;16.25;;
73859;SDS011;62197;51.632;13.700;2022-08-21T04:33:26;30.48;;;17.92;;
73859;SDS011;62197;51.632;13.700;2022-08-21T04:35:51;30.75;;;18.98;;
73859;SDS011;62197;51.632;13.700;2022-08-21T04:38:17;29.70;;;17.17;;
73859;SDS011;62197;51.632;13.700;2022-08-21T04:40:43;28.35;;;16.48;;
73859;SDS011;62197;51.632;13.700;2022-08-21T04:43:09;27.55;;;16.83;;
73859;SDS011;62197;51.632;13.700;2022-08-21T04:45:39;27.85;;;15.77;;
73859;SDS011;62197;51.632;13.700;2022-08-21T04:48:11;26.92;;;16.77;;
73859;SDS011;62197;51.632;13.700;2022-08-21T04:53:07;25.83;;;16.13;;
73859;SDS011;62197;51.632;13.700;2022-08-21T04:55:36;27.85;;;16.15;;
73859;SDS011;62197;51.632;13.700;2022-08-21T04:58:02;25.13;;;16.48;;
73859;SDS011;62197;51.632;13.700;2022-08-21T05:00:32;24.35;;;16.33;;
73859;SDS011;62197;51.632;13.700;2022-08-21T05:02:58;25.98;;;15.40;;
73859;SDS011;62197;51.632;13.700;2022-08-21T05:05:26;21.73;;;14.23;;
73859;SDS011;62197;51.632;13.700;2022-08-21T05:07:54;21.73;;;14.57;;
73859;SDS011;62197;51.632;13.700;2022-08-21T05:10:21;22.17;;;13.93;;
73859;SDS011;62197;51.632;13.700;2022-08-21T05:12:47;21.17;;;14.10;;
73859;SDS011;62197;51.632;13.700;2022-08-21T05:15:13;18.23;;;12.95;;
73859;SDS011;62197;51.632;13.700;2022-08-21T05:17:39;21.27;;;13.38;;
73859;SDS011;62197;51.632;13.700;2022-08-21T05:20:05;19.48;;;12.32;;
73859;SDS011;62197;51.632;13.700;2022-08-21T05:22:31;19.88;;;13.35;;
73859;SDS011;62197;51.632;13.700;2022-08-21T05:24:57;17.08;;;12.48;;
73859;SDS011;62197;51.632;13.700;2022-08-21T05:27:23;18.33;;;13.02;;
73859;SDS011;62197;51.632;13.700;2022-08-21T05:29:48;16.98;;;11.27;;
73859;SDS011;62197;51.632;13.700;2022-08-21T05:32:13;15.35;;;11.63;;
73859;SDS011;62197;51.632;13.700;2022-08-21T05:34:39;18.77;;;12.68;;
73859;SDS011;62197;51.632;13.700;2022-08-21T05:37:04;18.25;;;12.63;;
73859;SDS011;62197;51.632;13.700;2022-08-21T05:39:30;16.25;;;11.88;;
73859;SDS011;62197;51.632;13.700;2022-08-21T05:41:56;15.32;;;11.23;;
73859;SDS011;62197;51.632;13.700;2022-08-21T05:44:21;20.58;;;12.30;;
73859;SDS011;62197;51.632;13.700;2022-08-21T05:46:47;18.92;;;12.00;;
73859;SDS011;62197;51.632;13.700;2022-08-21T05:49:12;19.30;;;11.90;;
73859;SDS011;62197;51.632;13.700;2022-08-21T05:51:39;15.82;;;10.75;;
73859;SDS011;62197;51.632;13.700;2022-08-21T05:54:05;19.10;;;11.90;;
73859;SDS011;62197;51.632;13.700;2022-08-21T05:56:31;17.75;;;12.30;;
73859;SDS011;62197;51.632;13.700;2022-08-21T05:58:56;16.42;;;11.02;;
73859;SDS011;62197;51.632;13.700;2022-08-21T06:01:22;18.33;;;11.68;;
73859;SDS011;62197;51.632;13.700;2022-08-21T06:03:47;20.15;;;11.75;;
73859;SDS011;62197;51.632;13.700;2022-08-21T06:06:12;16.58;;;11.50;;
73859;SDS011;62197;51.632;13.700;2022-08-21T06:08:38;15.98;;;10.43;;
73859;SDS011;62197;51.632;13.700;2022-08-21T06:11:04;16.13;;;9.70;;
73859;SDS011;62197;51.632;13.700;2022-08-21T06:13:30;18.02;;;10.80;;
73859;SDS011;62197;51.632;13.700;2022-08-21T06:18:34;14.65;;;9.73;;
73859;SDS011;62197;51.632;13.700;2022-08-21T06:21:00;14.10;;;11.07;;
73859;SDS011;62197;51.632;13.700;2022-08-21T06:23:25;13.30;;;9.73;;
73859;SDS011;62197;51.632;13.700;2022-08-21T06:25:50;16.30;;;9.77;;
73859;SDS011;62197;51.632;13.700;2022-08-21T06:28:16;12.93;;;9.38;;
73859;SDS011;62197;51.632;13.700;2022-08-21T06:30:41;12.57;;;8.65;;
73859;SDS011;62197;51.632;13.700;2022-08-21T06:33:07;12.63;;;8.15;;
73859;SDS011;62197;51.632;13.700;2022-08-21T06:35:33;12.95;;;9.13;;
73859;SDS011;62197;51.632;13.700;2022-08-21T06:37:59;14.23;;;9.43;;
73859;SDS011;62197;51.632;13.700;2022-08-21T06:40:25;14.13;;;8.75;;
73859;SDS011;62197;51.632;13.700;2022-08-21T06:42:52;11.48;;;7.55;;
73859;SDS011;62197;51.632;13.700;2022-08-21T06:45:17;12.48;;;8.52;;
73859;SDS011;62197;51.632;13.700;2022-08-21T06:47:42;10.38;;;7.97;;
73859;SDS011;62197;51.632;13.700;2022-08-21T06:50:08;12.77;;;7.90;;
73859;SDS011;62197;51.632;13.700;2022-08-21T06:52:34;14.45;;;6.85;;
73859;SDS011;62197;51.632;13.700;2022-08-21T06:55:00;16.13;;;9.50;;
73859;SDS011;62197;51.632;13.700;2022-08-21T06:57:26;12.73;;;7.13;;
73859;SDS011;62197;51.632;13.700;2022-08-21T06:59:51;13.85;;;7.65;;
73859;SDS011;62197;51.632;13.700;2022-08-21T07:02:17;11.88;;;7.70;;
73859;SDS011;62197;51.632;13.700;2022-08-21T07:04:42;17.25;;;9.07;;
73859;SDS011;62197;51.632;13.700;2022-08-21T07:07:07;12.98;;;8.48;;
73859;SDS011;62197;51.632;13.700;2022-08-21T07:09:33;11.95;;;6.82;;
73859;SDS011;62197;51.632;13.700;2022-08-21T07:11:58;11.20;;;8.15;;
73859;SDS011;62197;51.632;13.700;2022-08-21T07:14:23;9.60;;;6.15;;
73859;SDS011;62197;51.632;13.700;2022-08-21T07:16:49;12.00;;;5.90;;
73859;SDS011;62197;51.632;13.700;2022-08-21T07:19:15;10.98;;;5.53;;
73859;SDS011;62197;51.632;13.700;2022-08-21T07:21:40;9.73;;;5.70;;
73859;SDS011;62197;51.632;13.700;2022-08-21T07:24:06;8.32;;;5.78;;
73859;SDS011;62197;51.632;13.700;2022-08-21T07:26:31;7.47;;;5.43;;
73859;SDS011;62197;51.632;13.700;2022-08-21T07:28:57;8.70;;;5.43;;
73859;SDS011;62197;51.632;13.700;2022-08-21T07:31:23;7.80;;;5.03;;
73859;SDS011;62197;51.632;13.700;2022-08-21T07:33:50;10.32;;;4.20;;
73859;SDS011;62197;51.632;13.700;2022-08-21T07:36:15;5.25;;;3.92;;
73859;SDS011;62197;51.632;13.700;2022-08-21T07:38:41;8.18;;;5.10;;
73859;SDS011;62197;51.632;13.700;2022-08-21T07:41:13;7.60;;;4.90;;
73859;SDS011;62197;51.632;13.700;2022-08-21T07:43:43;7.63;;;4.63;;
73859;SDS011;62197;51.632;13.700;2022-08-21T07:46:08;7.68;;;4.18;;
73859;SDS011;62197;51.632;13.700;2022-08-21T07:48:34;6.75;;;4.03;;
73859;SDS011;62197;51.632;13.700;2022-08-21T07:51:00;6.57;;;3.30;;
73859;SDS011;62197;51.632;13.700;2022-08-21T07:53:29;7.18;;;3.83;;
73859;SDS011;62197;51.632;13.700;2022-08-21T07:55:56;8.52;;;4.03;;
73859;SDS011;62197;51.632;13.700;2022-08-21T07:58:22;5.68;;;2.78;;
73859;SDS011;62197;51.632;13.700;2022-08-21T08:00:48;6.82;;;3.70;;
73859;SDS011;62197;51.632;13.700;2022-08-21T08:03:13;4.40;;;2.75;;
73859;SDS011;62197;51.632;13.700;2022-08-21T08:05:38;4.47;;;2.83;;
73859;SDS011;62197;51.632;13.700;2022-08-21T08:08:04;3.63;;;2.42;;
73859;SDS011;62197;51.632;13.700;2022-08-21T08:10:30;8.93;;;3.13;;
73859;SDS011;62197;51.632;13.700;2022-08-21T08:12:55;9.32;;;3.25;;
73859;SDS011;62197;51.632;13.700;2022-08-21T08:15:23;4.38;;;3.00;;
73859;SDS011;62197;51.632;13.700;2022-08-21T08:17:51;7.45;;;2.20;;
73859;SDS011;62197;51.632;13.700;2022-08-21T08:20:17;4.20;;;1.92;;
73859;SDS011;62197;51.632;13.700;2022-08-21T08:22:43;6.95;;;2.30;;
73859;SDS011;62197;51.632;13.700;2022-08-21T08:25:10;6.38;;;2.13;;
73859;SDS011;62197;51.632;13.700;2022-08-21T08:27:37;6.32;;;2.40;;
73859;SDS011;62197;51.632;13.700;2022-08-21T08:30:04;3.42;;;2.45;;
73859;SDS011;62197;51.632;13.700;2022-08-21T08:32:31;4.68;;;1.73;;
73859;SDS011;62197;51.632;13.700;2022-08-21T08:34:56;2.85;;;1.48;;
73859;SDS011;62197;51.632;13.700;2022-08-21T08:37:22;6.88;;;2.30;;
73859;SDS011;62197;51.632;13.700;2022-08-21T08:39:47;3.97;;;1.77;;
73859;SDS011;62197;51.632;13.700;2022-08-21T08:42:15;5.20;;;1.92;;
73859;SDS011;62197;51.632;13.700;2022-08-21T08:44:46;4.30;;;2.03;;
73859;SDS011;62197;51.632;13.700;2022-08-21T08:47:14;5.28;;;1.88;;
73859;SDS011;62197;51.632;13.700;2022-08-21T08:49:44;6.57;;;2.35;;
73859;SDS011;62197;51.632;13.700;2022-08-21T08:52:22;7.60;;;1.80;;
73859;SDS011;62197;51.632;13.700;2022-08-21T08:54:58;5.10;;;1.90;;
73859;SDS011;62197;51.632;13.700;2022-08-21T08:57:28;4.90;;;1.60;;
73859;SDS011;62197;51.632;13.700;2022-08-21T08:59:57;6.00;;;1.48;;
73859;SDS011;62197;51.632;13.700;2022-08-21T09:02:24;4.30;;;1.48;;
73859;SDS011;62197;51.632;13.700;2022-08-21T09:04:52;3.15;;;1.50;;
73859;SDS011;62197;51.632;13.700;2022-08-21T09:07:28;3.38;;;1.75;;
73859;SDS011;62197;51.632;13.700;2022-08-21T09:18:10;6.63;;;1.50;;
73859;SDS011;62197;51.632;13.700;2022-08-21T09:23:43;5.53;;;1.60;;
73859;SDS011;62197;51.632;13.700;2022-08-21T09:26:20;3.83;;;1.33;;
73859;SDS011;62197;51.632;13.700;2022-08-21T09:28:51;8.13;;;1.75;;
73859;SDS011;62197;51.632;13.700;2022-08-21T09:31:21;6.28;;;1.65;;
73859;SDS011;62197;51.632;13.700;2022-08-21T09:33:50;5.70;;;1.65;;
73859;SDS011;62197;51.632;13.700;2022-08-21T09:36:22;6.20;;;1.70;;
73859;SDS011;62197;51.632;13.700;2022-08-21T09:38:54;1.67;;;1.00;;
73859;SDS011;62197;51.632;13.700;2022-08-21T09:41:25;7.10;;;2.22;;
73859;SDS011;62197;51.632;13.700;2022-08-21T09:43:53;4.50;;;1.13;;
73859;SDS011;62197;51.632;13.700;2022-08-21T09:46:25;4.35;;;1.40;;
73859;SDS011;62197;51.632;13.700;2022-08-21T09:48:55;6.47;;;1.30;;
73859;SDS011;62197;51.632;13.700;2022-08-21T09:51:25;4.85;;;1.10;;
73859;SDS011;62197;51.632;13.700;2022-08-21T09:53:54;4.13;;;1.20;;
73859;SDS011;62197;51.632;13.700;2022-08-21T09:56:27;4.13;;;1.10;;
73859;SDS011;62197;51.632;13.700;2022-08-21T09:59:27;3.00;;;1.02;;
73859;SDS011;62197;51.632;13.700;2022-08-21T10:01:58;3.58;;;0.68;;
73859;SDS011;62197;51.632;13.700;2022-08-21T10:04:33;6.70;;;1.02;;
73859;SDS011;62197;51.632;13.700;2022-08-21T10:07:10;2.33;;;0.70;;
73859;SDS011;62197;51.632;13.700;2022-08-21T10:09:38;4.28;;;0.98;;
73859;SDS011;62197;51.632;13.700;2022-08-21T10:14:49;4.60;;;0.90;;
73859;SDS011;62197;51.632;13.700;2022-08-21T10:17:37;2.63;;;0.70;;
73859;SDS011;62197;51.632;13.700;2022-08-21T10:22:39;2.83;;;0.80;;
73859;SDS011;62197;51.632;13.700;2022-08-21T10:25:31;6.88;;;1.27;;
73859;SDS011;62197;51.632;13.700;2022-08-21T10:28:17;6.53;;;1.25;;
73859;SDS011;62197;51.632;13.700;2022-08-21T10:30:52;3.67;;;0.80;;
73859;SDS011;62197;51.632;13.700;2022-08-21T10:33:31;4.28;;;0.88;;
73859;SDS011;62197;51.632;13.700;2022-08-21T10:36:33;3.80;;;0.70;;
73859;SDS011;62197;51.632;13.700;2022-08-21T10:39:02;1.90;;;0.80;;
73859;SDS011;62197;51.632;13.700;2022-08-21T10:42:05;2.72;;;0.80;;
73859;SDS011;62197;51.632;13.700;2022-08-21T10:44:37;3.08;;;0.73;;
73859;SDS011;62197;51.632;13.700;2022-08-21T10:47:09;2.58;;;0.80;;
73859;SDS011;62197;51.632;13.700;2022-08-21T10:55:15;2.35;;;0.70;;
73859;SDS011;62197;51.632;13.700;2022-08-21T10:57:51;2.70;;;0.90;;
73859;SDS011;62197;51.632;13.700;2022-08-21T11:00:23;1.33;;;0.65;;
73859;SDS011;62197;51.632;13.700;2022-08-21T11:05:53;3.20;;;0.88;;
73859;SDS011;62197;51.632;13.700;2022-08-21T11:08:33;2.03;;;0.70;;
73859;SDS011;62197;51.632;13.700;2022-08-21T11:11:14;2.47;;;0.50;;
73859;SDS011;62197;51.632;13.700;2022-08-21T11:13:50;2.63;;;0.77;;
73859;SDS011;62197;51.632;13.700;2022-08-21T11:16:38;1.15;;;0.55;;
73859;SDS011;62197;51.632;13.700;2022-08-21T11:19:08;2.42;;;0.80;;
73859;SDS011;62197;51.632;13.700;2022-08-21T11:21:41;3.05;;;0.75;;
73859;SDS011;62197;51.632;13.700;2022-08-21T11:27:21;3.28;;;1.00;;
73859;SDS011;62197;51.632;13.700;2022-08-21T11:29:56;2.00;;;0.65;;
73859;SDS011;62197;51.632;13.700;2022-08-21T11:32:25;2.53;;;0.80;;
73859;SDS011;62197;51.632;13.700;2022-08-21T11:35:03;2.83;;;0.80;;
73859;SDS011;62197;51.632;13.700;2022-08-21T11:43:27;3.33;;;0.82;;
73859;SDS011;62197;51.632;13.700;2022-08-21T11:46:33;1.90;;;0.80;;
73859;SDS011;62197;51.632;13.700;2022-08-21T11:52:01;4.05;;;0.70;;
73859;SDS011;62197;51.632;13.700;2022-08-21T11:54:29;1.88;;;0.50;;
73859;SDS011;62197;51.632;13.700;2022-08-21T11:57:34;1.23;;;0.40;;
73859;SDS011;62197;51.632;13.700;2022-08-21T12:02:51;3.75;;;0.75;;
73859;SDS011;62197;51.632;13.700;2022-08-21T12:05:25;2.33;;;0.40;;
73859;SDS011;62197;51.632;13.700;2022-08-21T12:08:00;2.90;;;0.47;;
73859;SDS011;62197;51.632;13.700;2022-08-21T12:10:33;1.48;;;0.43;;
73859;SDS011;62197;51.632;13.700;2022-08-21T12:13:06;1.40;;;0.40;;
73859;SDS011;62197;51.632;13.700;2022-08-21T12:15:34;2.22;;;0.40;;
73859;SDS011;62197;51.632;13.700;2022-08-21T12:18:02;1.25;;;0.40;;
73859;SDS011;62197;51.632;13.700;2022-08-21T12:20:35;1.80;;;0.60;;
73859;SDS011;62197;51.632;13.700;2022-08-21T12:25:40;3.28;;;0.63;;
73859;SDS011;62197;51.632;13.700;2022-08-21T12:28:29;2.15;;;0.60;;
73859;SDS011;62197;51.632;13.700;2022-08-21T12:30:56;3.88;;;0.50;;
73859;SDS011;62197;51.632;13.700;2022-08-21T12:33:35;3.33;;;0.50;;
73859;SDS011;62197;51.632;13.700;2022-08-21T12:36:15;4.22;;;0.63;;
73859;SDS011;62197;51.632;13.700;2022-08-21T12:38:50;2.80;;;0.77;;
73859;SDS011;62197;51.632;13.700;2022-08-21T12:41:26;2.10;;;0.90;;
73859;SDS011;62197;51.632;13.700;2022-08-21T12:44:04;3.30;;;0.60;;
73859;SDS011;62197;51.632;13.700;2022-08-21T12:46:39;2.42;;;0.70;;
73859;SDS011;62197;51.632;13.700;2022-08-21T12:49:15;2.28;;;0.75;;
73859;SDS011;62197;51.632;13.700;2022-08-21T12:51:50;2.33;;;0.50;;
73859;SDS011;62197;51.632;13.700;2022-08-21T12:54:29;3.60;;;0.80;;
73859;SDS011;62197;51.632;13.700;2022-08-21T12:56:57;1.92;;;0.40;;
73859;SDS011;62197;51.632;13.700;2022-08-21T12:59:24;4.07;;;0.50;;
73859;SDS011;62197;51.632;13.700;2022-08-21T13:01:50;3.95;;;0.50;;
73859;SDS011;62197;51.632;13.700;2022-08-21T13:04:18;8.02;;;0.73;;
73859;SDS011;62197;51.632;13.700;2022-08-21T13:06:47;4.63;;;0.60;;
73859;SDS011;62197;51.632;13.700;2022-08-21T13:09:20;6.13;;;0.90;;
73859;SDS011;62197;51.632;13.700;2022-08-21T13:11:50;3.38;;;0.60;;
73859;SDS011;62197;51.632;13.700;2022-08-21T13:14:24;1.52;;;0.55;;
73859;SDS011;62197;51.632;13.700;2022-08-21T13:19:20;3.75;;;0.90;;
73859;SDS011;62197;51.632;13.700;2022-08-21T13:21:46;3.00;;;0.70;;
73859;SDS011;62197;51.632;13.700;2022-08-21T13:24:13;2.90;;;0.68;;
73859;SDS011;62197;51.632;13.700;2022-08-21T13:26:44;3.13;;;0.60;;
73859;SDS011;62197;51.632;13.700;2022-08-21T13:29:11;2.33;;;0.60;;
73859;SDS011;62197;51.632;13.700;2022-08-21T13:31:40;1.90;;;0.77;;
73859;SDS011;62197;51.632;13.700;2022-08-21T13:36:37;2.80;;;0.65;;
73859;SDS011;62197;51.632;13.700;2022-08-21T13:39:10;1.77;;;0.45;;
73859;SDS011;62197;51.632;13.700;2022-08-21T13:41:38;1.77;;;0.47;;
73859;SDS011;62197;51.632;13.700;2022-08-21T13:44:17;1.92;;;0.60;;
73859;SDS011;62197;51.632;13.700;2022-08-21T13:46:45;2.85;;;0.60;;
73859;SDS011;62197;51.632;13.700;2022-08-21T13:49:12;2.40;;;1.00;;
73859;SDS011;62197;51.632;13.700;2022-08-21T13:51:40;3.33;;;0.70;;
73859;SDS011;62197;51.632;13.700;2022-08-21T13:54:23;1.55;;;0.45;;
73859;SDS011;62197;51.632;13.700;2022-08-21T13:56:52;3.85;;;1.05;;
73859;SDS011;62197;51.632;13.700;2022-08-21T13:59:27;2.50;;;0.55;;
73859;SDS011;62197;51.632;13.700;2022-08-21T14:01:56;1.67;;;0.60;;
73859;SDS011;62197;51.632;13.700;2022-08-21T14:04:26;3.47;;;0.85;;
73859;SDS011;62197;51.632;13.700;2022-08-21T14:06:58;5.07;;;1.00;;
73859;SDS011;62197;51.632;13.700;2022-08-21T14:09:31;1.58;;;0.60;;
73859;SDS011;62197;51.632;13.700;2022-08-21T14:12:01;1.98;;;0.60;;
73859;SDS011;62197;51.632;13.700;2022-08-21T14:14:38;3.90;;;1.13;;
73859;SDS011;62197;51.632;13.700;2022-08-21T14:17:05;1.15;;;0.50;;
73859;SDS011;62197;51.632;13.700;2022-08-21T14:19:38;2.20;;;0.85;;
73859;SDS011;62197;51.632;13.700;2022-08-21T14:22:22;1.48;;;0.70;;
73859;SDS011;62197;51.632;13.700;2022-08-21T14:24:48;1.80;;;0.63;;
73859;SDS011;62197;51.632;13.700;2022-08-21T14:27:15;2.85;;;0.80;;
73859;SDS011;62197;51.632;13.700;2022-08-21T14:29:42;3.00;;;0.80;;
73859;SDS011;62197;51.632;13.700;2022-08-21T14:32:15;2.83;;;0.80;;
73859;SDS011;62197;51.632;13.700;2022-08-21T14:34:45;1.90;;;0.80;;
73859;SDS011;62197;51.632;13.700;2022-08-21T14:37:11;2.58;;;0.85;;
73859;SDS011;62197;51.632;13.700;2022-08-21T14:39:36;1.35;;;0.57;;
73859;SDS011;62197;51.632;13.700;2022-08-21T14:42:01;1.92;;;0.57;;
73859;SDS011;62197;51.632;13.700;2022-08-21T14:44:27;2.33;;;0.70;;
73859;SDS011;62197;51.632;13.700;2022-08-21T14:46:53;3.50;;;0.75;;
73859;SDS011;62197;51.632;13.700;2022-08-21T14:49:18;2.33;;;0.50;;
73859;SDS011;62197;51.632;13.700;2022-08-21T14:51:43;1.58;;;0.60;;
73859;SDS011;62197;51.632;13.700;2022-08-21T14:54:09;2.25;;;0.70;;
73859;SDS011;62197;51.632;13.700;2022-08-21T14:56:34;4.50;;;1.65;;
73859;SDS011;62197;51.632;13.700;2022-08-21T14:59:02;1.77;;;0.70;;
73859;SDS011;62197;51.632;13.700;2022-08-21T15:01:29;1.92;;;0.50;;
73859;SDS011;62197;51.632;13.700;2022-08-21T15:03:58;3.20;;;0.63;;
73859;SDS011;62197;51.632;13.700;2022-08-21T15:06:23;2.20;;;0.57;;
73859;SDS011;62197;51.632;13.700;2022-08-21T15:08:49;2.03;;;0.70;;
73859;SDS011;62197;51.632;13.700;2022-08-21T15:11:16;2.25;;;0.55;;
73859;SDS011;62197;51.632;13.700;2022-08-21T15:13:44;1.50;;;0.95;;
73859;SDS011;62197;51.632;13.700;2022-08-21T15:16:10;3.17;;;0.98;;
73859;SDS011;62197;51.632;13.700;2022-08-21T15:18:36;2.03;;;0.70;;
73859;SDS011;62197;51.632;13.700;2022-08-21T15:21:02;3.00;;;1.58;;
73859;SDS011;62197;51.632;13.700;2022-08-21T15:23:28;2.40;;;1.15;;
73859;SDS011;62197;51.632;13.700;2022-08-21T15:25:53;3.20;;;0.70;;
73859;SDS011;62197;51.632;13.700;2022-08-21T15:28:20;2.85;;;0.73;;